Tuesday, September 16, 2014
23:35 UTC
  |  Log In   |  Register Free
Airport Search:

Hobart Regional Airport
(KHBR)

Hobart Regional Airport Diagram
No Airport Diagram Available

FAA data valid effective July 24, 2014 until September 18, 2014 (unless otherwise noted).

 
 
 
 
 
 
 
 
 
 
 
 
 
 

Current Aviation Weather for Hobart Regional Airport (KHBR)

The most recent METAR observation for KHBR was updated at: 2309
METAR Summary (Translated METAR)
KHBR
162253Z AUTO 21011KT 10SM CLR 30/18 A3002 RMK AO2 SLP148 T03000178
KCSM
162253Z 20011KT 10SM SCT050 31/18 A3004 RMK AO2 SLP149 T03060178
(22.2 nm NW from KHBR)
KAXS
162255Z AUTO 20008G14KT 10SM SCT050 32/18 A3003 RMK AO2 T03150176
(22.5 nm SW from KHBR)
TAF Summary (Translated TAF)
KHBR
161721Z 1618/1718 VRB05KT P6SM BKN050 FM162000 18010KT P6SM BKN050
KCSM
(22.2 nm NW from KHBR)
161721Z 1618/1718 18010KT P6SM BKN050 FM170200 19007KT P6SM SCT050 BKN250 FM171500 22010G15KT P6SM SCT250
  Airport Weather Conditions for KHBR

 Current Weather at HBR
86° F
Fair
Southwest winds at 12.7 mph
HBR NOAA Radar

Pressure: 30.02 in
Humidity: 48%
Wind: Southwest at 12.7 MPH (11 KT)
Dew Point: 64.0°F
Visibility: 10.00 mi


Airport Weather Forecast for KHBR

Translated METAR and TAF for KHBR
Translated METAR for KHBR (2330 UTC 16 September 2014)
found at http://aviationweather.gov/adds/metars/
 
METAR text: KHBR 162253Z AUTO 21011KT 10SM CLR 30/18 A3002 RMK AO2 SLP148 T03000178
Conditions at: KHBR (HOBART , OK, US) observed 2253 UTC 16 September 2014
Temperature: 30.0°C (86°F)
Dewpoint: 17.8°C (64°F) [RH = 48%]
Pressure (altimeter): 30.02 inches Hg (1016.7 mb)
[Sea-level pressure: 1014.8 mb]
Winds: from the SSW (210 degrees) at 13 MPH (11 knots; 5.7 m/s)
Visibility: 10 or more miles (16+ km)
Ceiling: at least 12,000 feet AGL
Clouds: sky clear below 12,000 feet AGL
Weather: automated observation with no human augmentation;
there may or may not be significant weather present at this time
Translated TAF for KHBR
Forecast for: KHBR (HOBART , OK, US)
TAF Text: KHBR 162320Z 1700/1724 19010KT P6SM SCT050
Forecast period: 0000 to 1600 UTC 17 September 2014
Forecast type: FROM: standard forecast or significant change
Winds: from the S (190 degrees) at 12 MPH (10 knots; 5.2 m/s)
Visibility: 6 or more miles (10+ km)
Clouds: scattered clouds at 5000 feet AGL
Weather: no significant weather forecast for this period
TAF Text: FM171600 23012G20KT P6SM SCT250
Forecast period: 1600 UTC 17 September 2014 to 0000 UTC 18 September 2014
Forecast type: FROM: standard forecast or significant change
Winds: from the SW (230 degrees) at 14 MPH (12 knots; 6.2 m/s)
gusting to 23 MPH (20 knots; 10.4 m/s)
Visibility: 6 or more miles (10+ km)
Clouds: scattered clouds at 25000 feet AGL
Weather: no significant weather forecast for this period

Find All Airport Services Find A Hotel Find A Rental Car Find A Golf Course Find A Restaurant $100 Hamburger



FBO's on the Field
FBO Company Facility Photos Services Transportation Aviation Fuel Prices: Prices include tax
Catering Weather Repair Courtesy Rental Type 100LL JetA JetA+ MOGAS 8087
 
City of Hobart

Currently rated 2.8 by 1 person
FS:Phillips66
Last Updated: Sep-03
Login to update fuel prices
SS:
Contact City of HobartMore FBO Information
 
Add another FBO Facility Photos Catering Weather Repair Courtesy Rental Type 100LL JetA JetA+ MOGAS 8087
Services Transportation Aviation Fuel Prices: Prices include tax


model-print
model-print
model-print
model-print